This is the latest recevied weather packets stored in our database for station/object IK0TIX. If no packets are shown the sender has not sent any weather packets the latest 10 day(s).
| Time | Temp. | Humidity | Pressure | Rain* | Wind** | Luminosity | Snow |
|---|---|---|---|---|---|---|---|
| 1777695572 | 11.11° C | 49% | 1024.6 hPa | 0 mm | - | - | - |
| 1777694685 | 11.67° C | 48% | 1024.7 hPa | 0 mm | - | - | - |
| 1777693779 | 11.67° C | 47% | 1024.6 hPa | 0 mm | - | - | - |
| 1777691995 | 12.22° C | 48% | 1024.4 hPa | 0 mm | - | - | - |
| 1777691084 | 12.22° C | 47% | 1024.4 hPa | 0 mm | - | - | - |
| 1777688377 | 12.78° C | 45% | 1024.5 hPa | 0 mm | - | - | - |
| 1777685983 | 12.78° C | 45% | 1024.5 hPa | 0 mm | - | - | - |
| 1777685390 | 12.78° C | 43% | 1024.4 hPa | 0 mm | - | - | - |
| 1777684778 | 13.33° C | 42% | 1024.5 hPa | 0 mm | - | - | - |
| 1777683581 | 13.33° C | 42% | 1024.5 hPa | 0 mm | - | - | - |
| 1777682981 | 13.33° C | 43% | 1024.5 hPa | 0 mm | - | - | - |
| 1777682086 | 13.89° C | 41% | 1024.4 hPa | 0 mm | - | - | - |
| 1777680871 | 13.89° C | 42% | 1024.4 hPa | 0 mm | - | - | - |
| 1777680576 | 13.89° C | 42% | 1024.5 hPa | 0 mm | - | - | - |
| 1777678779 | 14.44° C | 38% | 1024.5 hPa | 0 mm | - | - | - |
| 1777677896 | 14.44° C | 37% | 1024.4 hPa | 0 mm | - | - | - |
| 1777677308 | 14.44° C | 36% | 1024.5 hPa | 0 mm | - | - | - |
| 1777676087 | 15° C | 38% | 1024.6 hPa | 0 mm | - | - | - |
| 1777675807 | 15° C | 39% | 1024.6 hPa | 0 mm | - | - | - |
| 1777673382 | 15.56° C | 42% | 1024.3 hPa | 0 mm | - | - | - |
| 1777670983 | 16.67° C | 61% | 1023.9 hPa | 0 mm | - | - | - |
| 1777670072 | 17.22° C | 61% | 1023.8 hPa | 0 mm | - | - | - |
| 1777669783 | 17.78° C | 61% | 1023.8 hPa | 0 mm | - | - | - |
| 1777669185 | 17.78° C | 61% | 1023.7 hPa | 0 mm | - | - | - |
| 1777667971 | 18.33° C | 61% | 1023.4 hPa | 0 mm | - | - | - |
* Rain latest hour (hover to see other rain measurements)
** Current wind speed in m/s (hover to see current wind gust speed)